< < Back
Terminal Aerodrome Forecast


Current Version              Previous Versions:   1  2  3  4  5  6  7  8  9  

Terminal Aerodrome Forecast

839
FTUS42 KFFC 180826 AAA
TAFATL
TAF AMD
KATL 180826Z 1808/1912 05006KT 4SM -DZ BR BKN004 OVC014
     FM181400 07006KT P6SM BKN008
     FM181800 11008KT P6SM BKN025 PROB30 1821/1824 4SM TSRA SCT025CB
      BKN035
     FM190300 12006KT P6SM -RA BKN015
     FM190600 13006KT 3SM -SHRA BR BKN006 OVC012=

Latest METAR

024
SAUS70 KWBC 181500 RRB
MTRATL
METAR KATL 181452Z 06006KT 10SM OVC007 19/17 A2999 RMK AO2 SLP151
T01890167 51003


USA.gov is the U.S. government's official web portal to all federal, state and local government web resources and services.